createdAt,value
2022-08-28T00:00:25.715Z,14.07
2022-08-28T00:02:53.364Z,14.05
2022-08-28T00:05:21.459Z,14.02
2022-08-28T00:07:48.200Z,14.02
2022-08-28T00:10:16.850Z,14.01
2022-08-28T00:12:44.396Z,14.00
2022-08-28T00:15:15.157Z,13.99
2022-08-28T00:17:42.216Z,13.98
2022-08-28T00:20:10.585Z,13.96
2022-08-28T00:22:38.579Z,13.93
2022-08-28T00:25:11.482Z,13.91
2022-08-28T00:27:53.142Z,13.88
2022-08-28T00:30:25.736Z,13.86
2022-08-28T00:32:54.601Z,13.82
2022-08-28T00:35:23.657Z,13.80
2022-08-28T00:37:50.612Z,13.79
2022-08-28T00:40:28.600Z,13.76
2022-08-28T00:42:57.979Z,13.74
2022-08-28T00:45:25.503Z,13.70
2022-08-28T00:47:52.283Z,13.69
2022-08-28T00:50:22.163Z,13.68
2022-08-28T00:52:53.151Z,13.67
2022-08-28T00:55:22.498Z,13.65
2022-08-28T00:57:52.512Z,13.64
2022-08-28T01:00:30.531Z,13.63
2022-08-28T01:02:58.875Z,13.61
2022-08-28T01:05:26.341Z,13.59
2022-08-28T01:07:53.813Z,13.57
2022-08-28T01:10:24.237Z,13.56
2022-08-28T01:12:53.101Z,13.55
2022-08-28T01:15:24.127Z,13.53
2022-08-28T01:17:55.051Z,13.51
2022-08-28T01:20:26.946Z,13.50
2022-08-28T01:23:08.528Z,13.48
2022-08-28T01:25:36.039Z,13.45
2022-08-28T01:28:05.590Z,13.42
2022-08-28T01:30:32.932Z,13.40
2022-08-28T01:32:59.463Z,13.38
2022-08-28T01:35:33.316Z,13.34
2022-08-28T01:38:00.002Z,13.30
2022-08-28T01:40:36.320Z,13.25
2022-08-28T01:43:11.775Z,13.20
2022-08-28T01:45:40.295Z,13.14
2022-08-28T01:48:07.886Z,13.13
2022-08-28T01:50:35.549Z,13.12
2022-08-28T01:53:04.846Z,13.10
2022-08-28T01:55:35.681Z,13.06
2022-08-28T01:58:05.589Z,13.00
2022-08-28T02:00:32.116Z,12.98
2022-08-28T02:03:00.698Z,12.92
2022-08-28T02:05:31.040Z,12.89
2022-08-28T02:07:58.929Z,12.88
2022-08-28T02:10:27.156Z,12.84
2022-08-28T02:12:55.846Z,12.82
2022-08-28T02:15:27.577Z,12.80
2022-08-28T02:17:54.193Z,12.78
2022-08-28T02:20:21.220Z,12.74
2022-08-28T02:22:48.371Z,12.71
2022-08-28T02:25:14.966Z,12.67
2022-08-28T02:27:41.474Z,12.59
2022-08-28T02:30:09.914Z,12.56
2022-08-28T02:32:36.877Z,12.53
2022-08-28T02:35:04.871Z,12.51
2022-08-28T02:37:39.547Z,12.48
2022-08-28T02:40:06.843Z,12.47
2022-08-28T02:42:33.317Z,12.43
2022-08-28T02:44:59.891Z,12.39
2022-08-28T02:47:26.469Z,12.37
2022-08-28T02:49:53.209Z,12.28
2022-08-28T02:52:19.676Z,12.27
2022-08-28T02:54:46.736Z,12.22
2022-08-28T02:57:13.707Z,12.20
2022-08-28T02:59:40.128Z,12.16
2022-08-28T03:02:07.553Z,12.10
2022-08-28T03:04:35.456Z,12.09
2022-08-28T03:07:02.284Z,12.07
2022-08-28T03:09:29.591Z,12.02
2022-08-28T03:11:56.393Z,12.01
2022-08-28T03:14:23.128Z,11.98
2022-08-28T03:16:49.872Z,11.96
2022-08-28T03:19:16.403Z,11.91
2022-08-28T03:21:42.876Z,11.87
2022-08-28T03:24:09.399Z,11.82
2022-08-28T03:26:35.974Z,11.79
2022-08-28T03:29:02.756Z,11.75
2022-08-28T03:31:33.795Z,11.72
2022-08-28T03:34:00.229Z,11.67
2022-08-28T03:36:28.493Z,11.67
2022-08-28T03:38:57.086Z,11.65
2022-08-28T03:41:26.857Z,11.64
2022-08-28T03:43:53.290Z,11.60
2022-08-28T03:46:23.541Z,11.60
2022-08-28T03:48:51.622Z,11.57
2022-08-28T03:51:29.797Z,11.54
2022-08-28T03:53:57.894Z,11.49
2022-08-28T03:56:27.303Z,11.50
2022-08-28T03:58:57.374Z,11.48
2022-08-28T04:01:24.653Z,11.44
2022-08-28T04:03:51.378Z,11.43
2022-08-28T04:06:19.671Z,11.41
2022-08-28T04:08:46.384Z,11.39
2022-08-28T04:11:13.058Z,11.34
2022-08-28T04:13:41.476Z,11.30
2022-08-28T04:16:11.848Z,11.28
2022-08-28T04:18:40.300Z,11.25
2022-08-28T04:21:10.876Z,11.23
2022-08-28T04:23:39.108Z,11.17
2022-08-28T04:26:10.033Z,11.13
2022-08-28T04:28:36.686Z,11.10
2022-08-28T04:31:03.355Z,11.06
2022-08-28T04:33:30.384Z,11.02
2022-08-28T04:35:57.205Z,11.03
2022-08-28T04:38:24.051Z,11.02
2022-08-28T04:40:50.703Z,11.02
2022-08-28T04:43:17.232Z,10.99
2022-08-28T04:45:45.716Z,10.98
2022-08-28T04:48:13.818Z,10.97
2022-08-28T04:50:42.906Z,10.97
2022-08-28T04:53:09.771Z,10.96
2022-08-28T04:55:54.629Z,10.99
2022-08-28T04:58:24.083Z,11.00
2022-08-28T05:00:52.380Z,11.02
2022-08-28T05:03:19.079Z,11.05
2022-08-28T05:05:48.548Z,11.05
2022-08-28T05:08:17.739Z,11.07
2022-08-28T05:10:45.415Z,11.08
2022-08-28T05:13:13.000Z,11.07
2022-08-28T05:15:40.942Z,11.06
2022-08-28T05:18:08.276Z,11.08
2022-08-28T05:20:39.782Z,11.14
2022-08-28T05:23:07.479Z,11.17
2022-08-28T05:25:39.393Z,11.22
2022-08-28T05:28:12.004Z,11.26
2022-08-28T05:30:40.293Z,11.29
2022-08-28T05:33:08.116Z,11.34
2022-08-28T05:35:36.343Z,11.42
2022-08-28T05:38:02.847Z,11.50
2022-08-28T05:40:29.358Z,11.61
2022-08-28T05:42:56.081Z,12.61
2022-08-28T05:45:23.622Z,14.94
2022-08-28T05:47:51.862Z,16.89
2022-08-28T05:50:18.915Z,18.22
2022-08-28T05:52:45.349Z,19.07
2022-08-28T05:55:13.051Z,19.74
2022-08-28T05:57:40.875Z,20.31
2022-08-28T06:00:12.649Z,20.92
2022-08-28T06:02:39.762Z,21.70
2022-08-28T06:05:07.256Z,21.79
2022-08-28T06:07:34.224Z,22.06
2022-08-28T06:10:00.843Z,22.10
2022-08-28T06:12:27.280Z,22.05
2022-08-28T06:14:54.823Z,22.14
2022-08-28T06:17:23.769Z,22.16
2022-08-28T06:19:50.507Z,22.03
2022-08-28T06:22:18.518Z,22.07
2022-08-28T06:24:47.911Z,21.73
2022-08-28T06:27:14.402Z,21.63
2022-08-28T06:29:41.394Z,21.39
2022-08-28T06:32:09.011Z,20.90
2022-08-28T06:34:35.616Z,20.54
2022-08-28T06:37:02.147Z,20.11
2022-08-28T06:39:28.587Z,19.83
2022-08-28T06:41:55.083Z,19.60
2022-08-28T06:44:22.340Z,19.22
2022-08-28T06:46:51.619Z,19.06
2022-08-28T06:49:18.300Z,18.93
2022-08-28T06:51:44.763Z,18.95
2022-08-28T06:54:11.380Z,19.10
2022-08-28T06:56:38.471Z,19.25
2022-08-28T06:59:05.052Z,19.44
2022-08-28T07:01:34.936Z,19.51
2022-08-28T07:04:10.461Z,19.39
2022-08-28T07:06:41.016Z,19.38
2022-08-28T07:09:13.066Z,19.28
2022-08-28T07:11:40.252Z,19.28
2022-08-28T07:14:07.491Z,19.24
2022-08-28T07:16:38.284Z,19.22
2022-08-28T07:19:06.968Z,19.22
2022-08-28T07:21:38.209Z,19.36
2022-08-28T07:24:06.589Z,19.50
2022-08-28T07:26:33.047Z,19.57
2022-08-28T07:29:10.874Z,19.63
2022-08-28T07:31:43.896Z,19.67
2022-08-28T07:34:11.863Z,19.74
2022-08-28T07:36:39.184Z,19.83
2022-08-28T07:39:07.070Z,19.79
2022-08-28T07:41:35.510Z,19.88
2022-08-28T07:44:20.898Z,19.87
2022-08-28T07:46:47.409Z,20.04
2022-08-28T07:49:17.712Z,20.19
2022-08-28T07:51:45.745Z,20.32
2022-08-28T07:54:17.728Z,20.27
2022-08-28T07:56:44.742Z,20.47
2022-08-28T07:59:11.809Z,20.72
2022-08-28T08:01:44.047Z,20.95
2022-08-28T08:04:13.170Z,21.15
2022-08-28T08:06:41.688Z,21.30
2022-08-28T08:09:11.017Z,21.44
2022-08-28T08:11:38.425Z,21.37
2022-08-28T08:14:06.053Z,21.34
2022-08-28T08:16:36.484Z,21.44
2022-08-28T08:19:03.875Z,21.59
2022-08-28T08:21:31.182Z,21.59
2022-08-28T08:23:58.529Z,21.72
2022-08-28T08:26:27.906Z,21.90
2022-08-28T08:28:55.461Z,22.08
2022-08-28T08:31:26.630Z,22.25
2022-08-28T08:33:55.128Z,22.35
2022-08-28T08:36:22.909Z,22.05
2022-08-28T08:38:50.665Z,21.98
2022-08-28T08:41:51.198Z,21.98
2022-08-28T08:44:34.521Z,22.08
2022-08-28T08:47:19.350Z,22.27
2022-08-28T08:50:00.250Z,22.09
2022-08-28T08:52:30.123Z,22.07
2022-08-28T08:55:31.939Z,22.34
2022-08-28T08:58:06.671Z,22.42
2022-08-28T09:00:39.456Z,22.57
2022-08-28T09:03:13.137Z,22.77
2022-08-28T09:05:49.968Z,22.89
2022-08-28T09:08:34.008Z,23.02
2022-08-28T09:11:13.726Z,23.08
2022-08-28T09:14:05.666Z,23.24
2022-08-28T09:16:37.303Z,23.17
2022-08-28T09:19:05.069Z,23.11
2022-08-28T09:21:35.373Z,23.07
2022-08-28T09:24:05.980Z,22.87
2022-08-28T09:26:37.463Z,23.03
2022-08-28T09:29:16.501Z,22.93
2022-08-28T09:31:44.023Z,22.39
2022-08-28T09:34:59.733Z,22.27
2022-08-28T09:37:28.240Z,22.16
2022-08-28T09:40:15.482Z,22.16
2022-08-28T09:43:18.367Z,22.02
2022-08-28T09:45:45.691Z,21.98
2022-08-28T09:48:23.689Z,21.93
2022-08-28T09:51:03.660Z,21.72
2022-08-28T09:53:32.466Z,21.59
2022-08-28T09:56:05.111Z,21.46
2022-08-28T09:58:40.808Z,21.44
2022-08-28T10:01:24.261Z,21.28
2022-08-28T10:04:19.419Z,21.62
2022-08-28T10:06:58.251Z,21.35
2022-08-28T10:09:52.449Z,21.44
2022-08-28T10:12:30.345Z,21.82
2022-08-28T10:15:08.220Z,22.37
2022-08-28T10:17:53.323Z,22.67
2022-08-28T10:20:35.282Z,22.84
2022-08-28T10:23:27.308Z,23.06
2022-08-28T10:26:07.319Z,23.30
2022-08-28T10:28:33.796Z,23.51
2022-08-28T10:31:12.240Z,23.63
2022-08-28T10:33:52.458Z,23.47
2022-08-28T10:36:34.801Z,23.01
2022-08-28T10:39:10.093Z,22.56
2022-08-28T10:41:50.561Z,22.23
2022-08-28T10:44:52.341Z,21.98
2022-08-28T10:47:21.391Z,21.87
2022-08-28T10:49:53.580Z,21.80
2022-08-28T10:52:27.420Z,22.35
2022-08-28T10:54:59.893Z,22.43
2022-08-28T10:57:40.043Z,22.65
2022-08-28T11:00:14.404Z,23.02
2022-08-28T11:02:45.718Z,23.20
2022-08-28T11:05:12.561Z,23.50
2022-08-28T11:07:45.188Z,23.22
2022-08-28T11:10:32.149Z,22.84
2022-08-28T11:12:59.429Z,22.59
2022-08-28T11:15:36.395Z,22.84
2022-08-28T11:18:16.567Z,23.11
2022-08-28T11:20:56.918Z,23.14
2022-08-28T11:23:35.258Z,23.21
2022-08-28T11:26:07.826Z,23.00
2022-08-28T11:28:34.551Z,22.87
2022-08-28T11:31:00.950Z,22.80
2022-08-28T11:33:55.406Z,22.65
2022-08-28T11:36:22.416Z,22.84
2022-08-28T11:38:51.872Z,23.10
2022-08-28T11:41:36.724Z,23.16
2022-08-28T11:44:09.296Z,23.01
2022-08-28T11:46:38.199Z,22.82
2022-08-28T11:49:26.106Z,23.15
2022-08-28T11:52:22.881Z,22.97
2022-08-28T11:55:19.957Z,22.39
2022-08-28T11:58:15.937Z,22.09
2022-08-28T12:01:05.604Z,22.41
2022-08-28T12:03:44.702Z,22.84
2022-08-28T12:06:12.153Z,22.79
2022-08-28T12:08:44.545Z,22.70
2022-08-28T12:11:39.725Z,22.51
2022-08-28T12:14:25.387Z,22.20
2022-08-28T12:17:00.897Z,21.99
2022-08-28T12:19:33.296Z,22.29
2022-08-28T12:22:31.523Z,22.26
2022-08-28T12:25:19.765Z,22.02
2022-08-28T12:27:46.534Z,21.94
2022-08-28T12:30:27.391Z,22.10
2022-08-28T12:33:07.948Z,22.24
2022-08-28T12:35:34.772Z,22.46
2022-08-28T12:38:05.343Z,22.46
2022-08-28T12:40:38.055Z,22.30
2022-08-28T12:43:07.956Z,22.19
2022-08-28T12:45:42.397Z,22.10
2022-08-28T12:48:17.707Z,21.98
2022-08-28T12:50:44.544Z,22.13
2022-08-28T12:53:17.239Z,22.18
2022-08-28T12:55:45.916Z,21.95
2022-08-28T12:58:33.947Z,21.81
2022-08-28T13:01:13.967Z,22.04
2022-08-28T13:03:45.847Z,22.24
2022-08-28T13:06:13.405Z,22.28
2022-08-28T13:08:40.391Z,22.38
2022-08-28T13:11:07.132Z,22.31
2022-08-28T13:13:40.114Z,22.35
2022-08-28T13:16:10.473Z,22.27
2022-08-28T13:18:39.954Z,22.27
2022-08-28T13:21:32.875Z,22.31
2022-08-28T13:24:21.737Z,22.23
2022-08-28T13:26:59.034Z,22.23
2022-08-28T13:29:25.569Z,22.34
2022-08-28T13:31:59.615Z,22.45
2022-08-28T13:34:29.190Z,22.54
2022-08-28T13:36:59.804Z,22.47
2022-08-28T13:39:31.861Z,22.49
2022-08-28T13:42:15.728Z,22.34
2022-08-28T13:44:50.610Z,22.13
2022-08-28T13:47:17.226Z,22.07
2022-08-28T13:49:43.743Z,22.24
2022-08-28T13:52:11.294Z,22.29
2022-08-28T13:54:37.822Z,22.33
2022-08-28T13:57:08.052Z,22.29
2022-08-28T13:59:34.921Z,22.28
2022-08-28T14:02:23.138Z,22.12
2022-08-28T14:04:49.833Z,22.04
2022-08-28T14:07:16.643Z,22.08
2022-08-28T14:09:43.282Z,22.06
2022-08-28T14:12:11.282Z,21.94
2022-08-28T14:14:38.448Z,21.98
2022-08-28T14:17:06.408Z,22.10
2022-08-28T14:19:32.922Z,22.07
2022-08-28T14:21:59.462Z,21.95
2022-08-28T14:24:26.318Z,21.80
2022-08-28T14:26:54.509Z,21.58
2022-08-28T14:29:21.711Z,21.48
2022-08-28T14:31:48.732Z,21.56
2022-08-28T14:34:18.672Z,21.69
2022-08-28T14:36:45.666Z,21.77
2022-08-28T14:39:13.308Z,21.85
2022-08-28T14:41:46.056Z,21.80
2022-08-28T14:44:13.132Z,21.83
2022-08-28T14:46:43.999Z,21.81
2022-08-28T14:49:12.102Z,21.89
2022-08-28T14:51:41.358Z,22.06
2022-08-28T14:54:09.328Z,22.19
2022-08-28T14:56:35.860Z,22.27
2022-08-28T14:59:03.987Z,22.26
2022-08-28T15:01:40.450Z,22.07
2022-08-28T15:04:11.041Z,21.86
2022-08-28T15:06:38.408Z,21.74
2022-08-28T15:09:05.390Z,21.66
2022-08-28T15:11:32.068Z,21.53
2022-08-28T15:14:00.157Z,21.55
2022-08-28T15:16:32.865Z,21.59
2022-08-28T15:18:59.900Z,21.47
2022-08-28T15:21:32.651Z,21.40
2022-08-28T15:24:00.816Z,21.35
2022-08-28T15:26:28.143Z,21.29
2022-08-28T15:28:58.111Z,21.24
2022-08-28T15:31:24.950Z,21.35
2022-08-28T15:33:52.036Z,21.46
2022-08-28T15:36:19.670Z,21.58
2022-08-28T15:39:05.262Z,21.64
2022-08-28T15:41:31.995Z,21.62
2022-08-28T15:44:01.453Z,21.56
2022-08-28T15:46:31.430Z,21.48
2022-08-28T15:48:58.389Z,21.36
2022-08-28T15:51:26.029Z,21.26
2022-08-28T15:53:53.008Z,21.18
2022-08-28T15:56:19.987Z,21.18
2022-08-28T15:58:47.152Z,21.14
2022-08-28T16:01:14.539Z,21.10
2022-08-28T16:03:41.383Z,21.13
2022-08-28T16:06:14.435Z,21.10
2022-08-28T16:08:42.037Z,21.02
2022-08-28T16:11:09.092Z,21.00
2022-08-28T16:13:35.517Z,20.95
2022-08-28T16:16:02.874Z,20.91
2022-08-28T16:18:29.339Z,20.90
2022-08-28T16:20:55.924Z,20.95
2022-08-28T16:23:22.391Z,20.99
2022-08-28T16:25:48.866Z,20.93
2022-08-28T16:28:15.406Z,20.91
2022-08-28T16:30:43.740Z,20.90
2022-08-28T16:33:10.764Z,20.78
2022-08-28T16:35:47.872Z,20.74
2022-08-28T16:38:17.471Z,20.69
2022-08-28T16:40:45.636Z,20.67
2022-08-28T16:43:13.291Z,20.58
2022-08-28T16:45:43.940Z,20.59
2022-08-28T16:48:12.671Z,20.53
2022-08-28T16:50:40.958Z,20.44
2022-08-28T16:53:07.822Z,20.43
2022-08-28T16:55:34.773Z,20.38
2022-08-28T16:58:01.512Z,20.35
2022-08-28T17:00:28.198Z,20.29
2022-08-28T17:02:54.688Z,20.21
2022-08-28T17:05:22.435Z,20.15
2022-08-28T17:07:49.407Z,20.11
2022-08-28T17:10:19.608Z,20.07
2022-08-28T17:12:46.259Z,19.99
2022-08-28T17:15:13.063Z,19.94
2022-08-28T17:17:41.072Z,19.92
2022-08-28T17:20:28.882Z,19.89
2022-08-28T17:22:55.444Z,19.83
2022-08-28T17:25:22.291Z,19.81
2022-08-28T17:27:48.901Z,19.79
2022-08-28T17:30:15.543Z,19.73
2022-08-28T17:32:42.172Z,19.66
2022-08-28T17:35:08.830Z,19.60
2022-08-28T17:37:36.771Z,19.54
2022-08-28T17:40:05.453Z,19.48
2022-08-28T17:42:31.890Z,19.46
2022-08-28T17:44:58.305Z,19.40
2022-08-28T17:47:26.235Z,19.38
2022-08-28T17:50:01.482Z,19.33
2022-08-28T17:52:29.395Z,19.27
2022-08-28T17:54:55.916Z,19.22
2022-08-28T17:57:24.116Z,19.13
2022-08-28T17:59:50.971Z,19.10
2022-08-28T18:02:17.716Z,19.05
2022-08-28T18:04:44.182Z,18.99
2022-08-28T18:07:11.271Z,18.93
2022-08-28T18:09:37.733Z,18.85
2022-08-28T18:12:06.718Z,18.81
2022-08-28T18:14:39.320Z,18.75
2022-08-28T18:17:06.048Z,18.71
2022-08-28T18:19:36.732Z,18.64
2022-08-28T18:22:03.275Z,18.59
2022-08-28T18:24:30.937Z,18.54
2022-08-28T18:26:58.680Z,18.50
2022-08-28T18:29:25.123Z,18.45
2022-08-28T18:31:51.960Z,18.39
2022-08-28T18:34:18.408Z,18.32
2022-08-28T18:36:44.843Z,18.27
2022-08-28T18:39:11.800Z,18.23
2022-08-28T18:41:44.026Z,18.21
2022-08-28T18:44:11.714Z,18.17
2022-08-28T18:46:38.412Z,18.09
2022-08-28T18:49:04.955Z,18.05
2022-08-28T18:51:32.581Z,18.00
2022-08-28T18:54:00.875Z,17.97
2022-08-28T18:56:30.855Z,17.92
2022-08-28T18:58:59.225Z,17.85
2022-08-28T19:01:28.814Z,17.84
2022-08-28T19:03:55.764Z,17.81
2022-08-28T19:06:22.404Z,17.76
2022-08-28T19:08:48.900Z,17.70
2022-08-28T19:11:16.164Z,17.65
2022-08-28T19:13:43.559Z,17.61
2022-08-28T19:16:10.777Z,17.56
2022-08-28T19:18:37.235Z,17.53
2022-08-28T19:21:10.084Z,17.49
2022-08-28T19:23:49.861Z,17.45
2022-08-28T19:26:23.716Z,17.40
2022-08-28T19:28:50.510Z,17.37
2022-08-28T19:31:17.728Z,17.32
2022-08-28T19:33:46.354Z,17.27
2022-08-28T19:36:13.548Z,17.25
2022-08-28T19:38:40.556Z,17.21
2022-08-28T19:41:09.536Z,17.17
2022-08-28T19:43:43.140Z,17.13
2022-08-28T19:46:14.462Z,17.11
2022-08-28T19:48:51.892Z,17.06
2022-08-28T19:51:23.505Z,17.02
2022-08-28T19:53:58.585Z,17.02
2022-08-28T19:56:30.240Z,16.96
2022-08-28T19:58:59.091Z,16.94
2022-08-28T20:01:31.564Z,16.90
2022-08-28T20:03:59.067Z,16.86
2022-08-28T20:06:26.806Z,16.85
2022-08-28T20:08:53.313Z,16.81
2022-08-28T20:11:24.751Z,16.77
2022-08-28T20:13:53.068Z,16.75
2022-08-28T20:16:19.564Z,16.72
2022-08-28T20:18:46.046Z,16.67
2022-08-28T20:21:14.171Z,16.65
2022-08-28T20:23:40.611Z,16.61
2022-08-28T20:26:09.085Z,16.58
2022-08-28T20:28:36.468Z,16.54
2022-08-28T20:31:12.768Z,16.50
2022-08-28T20:33:39.298Z,16.46
2022-08-28T20:36:07.280Z,16.40
2022-08-28T20:38:39.988Z,16.35
2022-08-28T20:41:16.012Z,16.34
2022-08-28T20:43:43.776Z,16.31
2022-08-28T20:46:11.397Z,16.29
2022-08-28T20:48:38.899Z,16.26
2022-08-28T20:51:05.626Z,16.23
2022-08-28T20:53:37.549Z,16.18
2022-08-28T20:56:09.099Z,16.15
2022-08-28T20:58:36.495Z,16.11
2022-08-28T21:01:03.501Z,16.06
2022-08-28T21:03:29.933Z,16.03
2022-08-28T21:05:56.423Z,16.01
2022-08-28T21:08:22.847Z,15.99
2022-08-28T21:10:52.255Z,15.95
2022-08-28T21:13:18.999Z,15.91
2022-08-28T21:15:45.472Z,15.90
2022-08-28T21:18:11.913Z,15.86
2022-08-28T21:20:39.837Z,15.86
2022-08-28T21:23:06.961Z,15.85
2022-08-28T21:25:33.452Z,15.83
2022-08-28T21:28:01.353Z,15.82
2022-08-28T21:30:31.278Z,15.81
2022-08-28T21:32:57.805Z,15.80
2022-08-28T21:35:24.570Z,15.77
2022-08-28T21:37:51.305Z,15.77
2022-08-28T21:40:19.458Z,15.76
2022-08-28T21:42:45.956Z,15.75
2022-08-28T21:45:12.520Z,15.75
2022-08-28T21:47:39.839Z,15.75
2022-08-28T21:50:06.775Z,15.77
2022-08-28T21:52:34.225Z,15.77
2022-08-28T21:55:03.363Z,15.80
2022-08-28T21:57:30.443Z,15.81
2022-08-28T21:59:57.229Z,15.81
2022-08-28T22:02:24.548Z,15.82
2022-08-28T22:04:51.146Z,15.82
2022-08-28T22:07:18.816Z,15.81
2022-08-28T22:09:45.855Z,15.78
2022-08-28T22:12:12.354Z,15.77
2022-08-28T22:14:38.913Z,15.74
2022-08-28T22:17:11.231Z,15.70
2022-08-28T22:19:38.586Z,15.66
2022-08-28T22:22:23.483Z,15.61
2022-08-28T22:24:49.908Z,15.57
2022-08-28T22:27:16.345Z,15.50
2022-08-28T22:29:42.923Z,15.44
2022-08-28T22:32:10.326Z,15.39
2022-08-28T22:34:41.223Z,15.32
2022-08-28T22:37:11.377Z,15.29
2022-08-28T22:39:39.483Z,15.24
2022-08-28T22:42:06.515Z,15.18
2022-08-28T22:44:32.961Z,15.13
2022-08-28T22:46:59.569Z,15.07
2022-08-28T22:49:26.058Z,15.01
2022-08-28T22:51:53.080Z,14.98
2022-08-28T22:54:19.815Z,14.94
2022-08-28T22:56:46.231Z,14.87
2022-08-28T22:59:12.812Z,14.83
2022-08-28T23:01:42.317Z,14.77
2022-08-28T23:04:10.010Z,14.68
2022-08-28T23:06:39.627Z,14.58
2022-08-28T23:09:07.342Z,14.55
2022-08-28T23:11:37.610Z,14.54
2022-08-28T23:14:05.395Z,14.48
2022-08-28T23:16:33.424Z,14.45
2022-08-28T23:19:08.545Z,14.45
2022-08-28T23:21:40.937Z,14.38
2022-08-28T23:24:12.204Z,14.35
2022-08-28T23:26:38.620Z,14.30
2022-08-28T23:29:05.215Z,14.27
2022-08-28T23:31:31.696Z,14.18
2022-08-28T23:33:58.171Z,14.13
2022-08-28T23:36:25.176Z,14.13
2022-08-28T23:38:51.640Z,14.07
2022-08-28T23:41:18.643Z,13.99
2022-08-28T23:43:45.778Z,13.91
2022-08-28T23:46:17.100Z,13.87
2022-08-28T23:48:43.854Z,13.82
2022-08-28T23:51:13.493Z,13.81
2022-08-28T23:53:42.607Z,13.79
2022-08-28T23:56:09.400Z,13.69
2022-08-28T23:58:35.893Z,13.66
